Time;durP1;ratioP1;P1;durP2;ratioP2;P2;SDS_P1;SDS_P2;PMS_P1;PMS_P2;Temp;Humidity;BMP_temperature;BMP_pressure;BME280_temperature;BME280_humidity;BME280_pressure;Samples;Min_cycle;Max_cycle;Signal;HPM_P1;HPM_P2
2023/02/01 00:00:27;;;;;;;2.00;0.80;;;;;;;2.62;100.00;99690.50;185107;1233;57377;-72
2023/02/01 00:04:48;;;;;;;2.20;0.80;;;;;;;2.79;100.00;99696.00;185475;1233;45945;-72
2023/02/01 00:08:54;;;;;;;1.10;0.90;;;;;;;2.80;100.00;99716.76;185381;1234;76893;-87
2023/02/01 00:12:57;;;;;;;4.90;1.70;;;;;;;2.87;100.00;99719.71;182727;1232;46060;-87
2023/02/01 00:17:00;;;;;;;4.20;1.50;;;;;;;2.95;100.00;99731.80;183761;1232;45963;-87
2023/02/01 00:21:04;;;;;;;4.10;1.50;;;;;;;3.08;100.00;99730.36;183212;1236;60696;-88
2023/02/01 00:25:07;;;;;;;4.70;2.60;;;;;;;3.18;100.00;99732.38;183075;1232;46056;-89
2023/02/01 00:29:15;;;;;;;5.90;2.00;;;;;;;3.35;100.00;99719.98;182923;1232;46514;-88
2023/02/01 00:33:17;;;;;;;5.20;2.30;;;;;;;3.49;100.00;99724.73;183104;1237;46047;-88
2023/02/01 00:37:20;;;;;;;6.60;2.50;;;;;;;3.59;100.00;99721.19;183253;1236;44707;-89
2023/02/01 00:41:32;;;;;;;2.70;1.60;;;;;;;3.71;100.00;99725.89;183394;1232;60749;-90
2023/02/01 00:45:56;;;;;;;4.40;2.10;;;;;;;3.75;100.00;99729.13;184175;1236;45987;-90
2023/02/01 00:55:10;;;;;;;7.20;2.30;;;;;;;3.96;100.00;99739.41;185011;1236;45982;-90
2023/02/01 01:11:41;;;;;;;5.80;2.70;;;;;;;4.03;100.00;99753.20;185573;1235;45586;-76
2023/02/01 01:15:45;;;;;;;6.70;2.50;;;;;;;3.94;100.00;99750.10;185612;1235;44502;-76
2023/02/01 01:19:52;;;;;;;5.10;2.60;;;;;;;4.01;100.00;99735.93;185778;1235;43778;-75
2023/02/01 01:29:27;;;;;;;7.60;3.40;;;;;;;4.21;100.00;99722.95;185828;1234;58882;-75
2023/02/01 01:33:57;;;;;;;16.90;4.40;;;;;;;4.30;100.00;99738.30;185609;1234;43706;-75
2023/02/01 01:38:02;;;;;;;6.70;2.20;;;;;;;4.46;99.02;99766.80;185642;1233;44125;-74
2023/02/01 01:42:05;;;;;;;8.90;3.00;;;;;;;4.65;100.00;99787.02;185543;1235;46177;-74
2023/02/01 01:46:08;;;;;;;7.20;2.80;;;;;;;4.63;99.99;99771.53;185604;1234;43571;-74
2023/02/01 01:50:20;;;;;;;6.50;3.60;;;;;;;4.58;100.00;99765.17;185768;1234;58026;-73
2023/02/01 01:54:27;;;;;;;11.00;3.80;;;;;;;4.46;100.00;99760.64;185574;1234;44636;-73
2023/02/01 01:58:58;;;;;;;8.10;3.10;;;;;;;4.29;100.00;99761.04;185537;1234;43442;-73
2023/02/01 02:03:18;;;;;;;10.10;4.00;;;;;;;4.29;98.42;99753.14;185590;1237;45877;-73
2023/02/01 02:07:35;;;;;;;7.00;2.40;;;;;;;4.36;96.92;99748.48;185678;1233;43443;-72
2023/02/01 02:11:42;;;;;;;6.30;3.10;;;;;;;4.41;96.05;99759.43;185814;1237;58782;-73
2023/02/01 02:16:21;;;;;;;5.70;2.70;;;;;;;4.45;95.54;99754.74;186055;1235;46027;-72
2023/02/01 02:26:06;;;;;;;7.50;3.30;;;;;;;4.52;94.55;99749.94;185634;1234;44708;-73
2023/02/01 02:30:15;;;;;;;8.50;2.20;;;;;;;4.53;93.73;99739.16;185505;1233;44271;-73
2023/02/01 02:34:23;;;;;;;6.50;2.80;;;;;;;4.50;93.89;99739.69;185608;1234;57462;-74
2023/02/01 02:38:46;;;;;;;12.50;2.80;;;;;;;4.47;94.04;99740.95;185629;1233;44787;-72
2023/02/01 02:47:47;;;;;;;;;;;;;;;4.47;95.20;99737.25;187214;1235;43065;-73
2023/02/01 03:05:46;;;;;;;14.70;4.50;;;;;;;4.66;93.13;99725.12;187177;1234;43589;-74
2023/02/01 03:09:49;;;;;;;9.70;5.20;;;;;;;4.60;93.05;99727.64;186522;1239;43812;-72
2023/02/01 03:14:00;;;;;;;11.40;3.80;;;;;;;4.50;93.14;99736.89;185985;1240;43396;-72
2023/02/01 03:18:10;;;;;;;21.70;4.80;;;;;;;4.48;93.47;99733.69;185966;1240;58296;-71
2023/02/01 03:22:16;;;;;;;11.60;5.90;;;;;;;4.52;93.37;99735.19;186013;1240;43612;-71
2023/02/01 03:26:20;;;;;;;;;;;;;;;4.61;92.80;99723.85;186191;1240;42970;-71
2023/02/01 03:30:25;;;;;;;9.30;3.20;;;;;;;4.71;92.22;99725.48;186113;1241;42817;-71
2023/02/01 03:34:27;;;;;;;11.00;4.50;;;;;;;4.83;91.44;99728.92;185743;1243;43600;-71
2023/02/01 03:44:12;;;;;;;7.80;3.10;;;;;;;4.96;89.81;99718.56;185749;1242;43014;-72
2023/02/01 03:48:16;;;;;;;14.90;3.70;;;;;;;4.92;90.41;99721.70;185696;1246;42988;-71
2023/02/01 03:52:24;;;;;;;7.90;4.00;;;;;;;4.80;89.89;99713.16;185454;1245;43029;-71
2023/02/01 03:56:28;;;;;;;9.20;3.80;;;;;;;4.71;90.33;99703.74;185428;1246;43642;-71
2023/02/01 04:00:31;;;;;;;8.70;3.40;;;;;;;4.65;90.68;99718.13;185364;1247;58362;-69
2023/02/01 04:04:34;;;;;;;9.90;4.10;;;;;;;4.60;91.20;99710.76;185337;1246;43714;-70
2023/02/01 04:08:35;;;;;;;8.90;4.60;;;;;;;4.59;90.85;99709.42;185509;1247;42965;-69
2023/02/01 04:12:38;;;;;;;11.60;3.80;;;;;;;4.60;90.95;99706.20;185446;1247;43671;-69
2023/02/01 04:16:40;;;;;;;15.10;4.30;;;;;;;4.60;90.70;99698.45;185445;1247;43791;-73
2023/02/01 04:21:33;;;;;;;16.70;4.00;;;;;;;4.64;90.93;99698.52;185358;1246;58784;-70
2023/02/01 04:25:35;;;;;;;7.60;3.30;;;;;;;4.68;90.20;99693.87;185398;1247;43031;-70
2023/02/01 04:29:36;;;;;;;31.80;5.30;;;;;;;4.76;89.84;99694.77;185221;1246;42940;-70
2023/02/01 04:33:39;;;;;;;4.20;2.10;;;;;;;4.83;89.13;99699.73;185418;1245;43710;-69
2023/02/01 04:37:41;;;;;;;7.20;3.20;;;;;;;4.93;88.39;99699.95;185464;1246;42938;-69
2023/02/01 04:42:03;;;;;;;6.00;3.00;;;;;;;5.03;87.44;99697.20;185429;1246;58481;-69
2023/02/01 04:46:05;;;;;;;6.90;3.90;;;;;;;5.07;87.61;99694.99;185413;1247;43027;-69
2023/02/01 04:50:10;;;;;;;8.20;2.70;;;;;;;5.06;87.22;99676.80;185402;1246;42912;-69
2023/02/01 04:54:11;;;;;;;8.40;3.60;;;;;;;5.05;87.26;99675.48;185388;1246;43663;-69
2023/02/01 04:58:13;;;;;;;17.90;3.70;;;;;;;5.01;87.61;99673.97;185475;1246;43685;-69
2023/02/01 05:02:15;;;;;;;11.80;3.70;;;;;;;5.01;86.81;99666.56;185476;1247;57456;-69
2023/02/01 05:06:17;;;;;;;11.70;3.80;;;;;;;5.05;86.85;99661.20;185394;1246;43774;-69
2023/02/01 05:10:18;;;;;;;9.60;3.70;;;;;;;5.08;86.82;99663.12;185354;1245;42963;-69
2023/02/01 05:14:20;;;;;;;8.10;4.00;;;;;;;5.11;86.81;99663.58;185507;1246;43100;-69
2023/02/01 05:18:22;;;;;;;8.70;3.90;;;;;;;5.15;87.03;99658.94;185374;1245;43676;-69
2023/02/01 05:22:24;;;;;;;9.90;2.60;;;;;;;5.21;87.24;99664.83;185500;1246;59207;-69
2023/02/01 05:26:25;;;;;;;18.70;4.90;;;;;;;5.20;86.93;99662.52;185461;1246;43722;-69
2023/02/01 05:30:27;;;;;;;18.00;4.20;;;;;;;5.19;86.64;99658.29;185131;1247;42950;-69
2023/02/01 05:34:29;;;;;;;11.10;3.10;;;;;;;5.24;86.20;99660.82;185477;1246;43737;-68
2023/02/01 05:38:38;;;;;;;8.20;3.00;;;;;;;5.24;86.09;99653.54;185428;1246;43392;-69
2023/02/01 05:42:39;;;;;;;9.10;3.20;;;;;;;5.24;86.09;99653.03;185379;1245;57297;-68
2023/02/01 05:46:41;;;;;;;8.10;3.70;;;;;;;5.26;86.06;99647.27;185523;1245;43029;-69
2023/02/01 05:50:43;;;;;;;14.80;4.50;;;;;;;5.21;86.07;99637.09;185433;1246;43232;-68
2023/02/01 05:54:49;;;;;;;9.90;3.70;;;;;;;5.23;86.20;99638.88;185271;1248;43895;-68
2023/02/01 05:59:18;;;;;;;9.90;3.60;;;;;;;5.28;86.22;99643.07;185252;1248;42981;-69
2023/02/01 06:03:19;;;;;;;9.60;2.60;;;;;;;5.33;86.88;99644.55;185241;1251;57993;-68
2023/02/01 06:07:21;;;;;;;6.30;3.60;;;;;;;5.28;86.47;99636.77;185247;1248;43872;-69
2023/02/01 06:11:23;;;;;;;6.40;3.50;;;;;;;5.28;86.41;99637.66;185255;1248;43395;-68
2023/02/01 06:15:35;;;;;;;8.10;3.50;;;;;;;5.25;86.70;99621.98;184690;1250;43014;-70
2023/02/01 06:19:36;;;;;;;8.40;3.80;;;;;;;5.22;86.86;99616.45;184575;1250;43799;-68
2023/02/01 06:23:38;;;;;;;10.60;3.90;;;;;;;5.23;86.36;99633.76;184579;1250;57799;-69
2023/02/01 06:27:40;;;;;;;8.20;3.50;;;;;;;5.18;87.05;99627.80;185017;1250;43715;-69
2023/02/01 06:32:10;;;;;;;10.20;4.40;;;;;;;5.12;87.37;99633.64;184372;1250;43109;-69
2023/02/01 06:36:12;;;;;;;7.10;3.30;;;;;;;5.13;87.22;99633.56;185041;1250;43748;-68
2023/02/01 06:40:13;;;;;;;3.80;2.40;;;;;;;5.11;87.79;99642.17;184532;1250;43027;-69
2023/02/01 06:44:16;;;;;;;8.10;3.20;;;;;;;5.08;87.90;99638.70;185074;1249;57791;-68
2023/02/01 06:48:18;;;;;;;9.60;4.10;;;;;;;5.09;88.06;99652.85;184353;1250;43074;-69
2023/02/01 06:52:20;;;;;;;14.40;4.60;;;;;;;5.07;89.01;99651.24;184413;1250;42994;-68
2023/02/01 06:56:22;;;;;;;15.40;4.80;;;;;;;5.00;89.59;99653.66;185021;1249;43655;-68
2023/02/01 07:00:24;;;;;;;10.00;3.10;;;;;;;5.02;90.32;99654.37;184582;1250;43650;-68
2023/02/01 07:04:28;;;;;;;7.10;4.50;;;;;;;5.05;90.69;99652.98;184421;1250;57792;-69
2023/02/01 07:08:33;;;;;;;10.60;4.20;;;;;;;5.02;90.42;99651.27;185022;1250;43712;-69
2023/02/01 07:12:35;;;;;;;19.00;4.30;;;;;;;5.04;90.54;99655.30;184361;1250;43687;-68
2023/02/01 07:16:38;;;;;;;6.90;3.80;;;;;;;5.08;91.09;99659.05;185078;1250;43657;-68
2023/02/01 07:20:40;;;;;;;5.20;3.00;;;;;;;5.10;91.83;99661.24;184518;1250;42987;-68
2023/02/01 07:24:42;;;;;;;3.80;2.40;;;;;;;5.06;92.64;99657.84;184229;1250;58026;-69
2023/02/01 07:28:47;;;;;;;11.70;4.80;;;;;;;4.95;93.95;99658.86;185040;1250;43669;-69
2023/02/01 07:32:49;;;;;;;6.20;3.00;;;;;;;4.91;94.53;99653.17;185029;1250;42896;-68
2023/02/01 07:36:51;;;;;;;8.60;3.20;;;;;;;4.90;94.74;99665.41;184412;1250;43722;-68
2023/02/01 07:41:11;;;;;;;7.50;3.80;;;;;;;4.90;94.78;99650.83;185007;1250;42921;-69
2023/02/01 08:01:24;;;;;;;14.50;5.60;;;;;;;5.30;95.02;99642.28;181070;1257;579252;-68
2023/02/01 08:05:27;;;;;;;10.30;4.30;;;;;;;5.35;94.37;99636.98;184379;1241;58342;-69
2023/02/01 08:09:30;;;;;;;11.10;5.10;;;;;;;5.35;93.82;99637.92;184152;1244;45025;-68
2023/02/01 08:13:35;;;;;;;15.70;5.50;;;;;;;5.42;93.75;99635.48;184182;1241;43707;-68
2023/02/01 08:17:38;;;;;;;9.00;4.10;;;;;;;5.50;94.19;99648.96;184313;1241;44804;-68
2023/02/01 08:21:40;;;;;;;8.80;4.90;;;;;;;5.48;94.80;99645.21;184240;1240;46007;-68
2023/02/01 08:25:41;;;;;;;9.20;4.40;;;;;;;5.44;95.10;99643.08;184318;1241;57292;-68
2023/02/01 08:29:43;;;;;;;11.50;4.70;;;;;;;5.41;95.79;99643.27;184075;1241;45988;-68
2023/02/01 08:33:50;;;;;;;11.70;4.00;;;;;;;5.35;96.97;99632.28;184134;1243;44530;-67
2023/02/01 08:37:52;;;;;;;15.90;4.20;;;;;;;5.33;97.22;99643.12;184258;1240;43442;-68
2023/02/01 08:46:15;;;;;;;13.00;4.20;;;;;;;5.28;97.69;99637.14;185323;1234;58245;-69
2023/02/01 08:50:19;;;;;;;14.10;4.20;;;;;;;5.28;97.51;99645.42;185035;1233;44546;-68
2023/02/01 08:54:21;;;;;;;13.50;5.30;;;;;;;5.30;97.28;99637.02;185248;1234;45274;-68
2023/02/01 08:58:23;;;;;;;11.80;4.40;;;;;;;5.25;97.53;99641.34;185086;1235;45994;-68
2023/02/01 09:02:26;;;;;;;11.50;3.80;;;;;;;5.23;97.98;99635.71;185181;1233;45969;-68
2023/02/01 09:06:28;;;;;;;4.80;2.80;;;;;;;5.22;98.08;99631.23;185185;1234;57386;-67
2023/02/01 09:10:30;;;;;;;7.60;3.10;;;;;;;5.20;98.23;99630.86;185215;1235;45827;-68
2023/02/01 09:14:37;;;;;;;7.50;3.10;;;;;;;5.20;98.66;99631.35;185290;1235;43642;-67
2023/02/01 09:18:39;;;;;;;6.30;2.70;;;;;;;5.20;98.92;99633.08;185988;1234;77725;-87
2023/02/01 09:23:01;;;;;;;6.90;2.20;;;;;;;5.24;99.67;99628.98;186318;1234;43619;-88
2023/02/01 09:27:03;;;;;;;10.00;3.20;;;;;;;5.26;99.09;99627.03;186402;1232;60484;-88
2023/02/01 09:31:07;;;;;;;11.20;2.90;;;;;;;5.33;98.42;99620.26;187116;1228;43631;-86
2023/02/01 09:35:09;;;;;;;5.40;3.70;;;;;;;5.37;98.05;99610.62;187101;1228;43681;-88
2023/02/01 09:39:14;;;;;;;10.30;4.60;;;;;;;5.36;98.16;99607.19;187016;1228;43656;-87
2023/02/01 09:43:47;;;;;;;12.20;4.10;;;;;;;5.43;97.95;99601.94;187250;1228;43651;-88
2023/02/01 09:47:57;;;;;;;8.90;3.80;;;;;;;5.46;96.87;99591.92;187465;1228;58126;-87
2023/02/01 09:52:05;;;;;;;6.00;4.10;;;;;;;5.46;96.50;99595.63;187209;1228;43569;-88
2023/02/01 09:56:13;;;;;;;7.00;3.90;;;;;;;5.48;96.26;99588.06;187010;1228;43721;-88
2023/02/01 10:00:25;;;;;;;9.40;4.20;;;;;;;5.50;96.31;99577.19;187109;1228;43538;-88
2023/02/01 10:04:28;;;;;;;5.60;3.90;;;;;;;5.56;96.31;99572.70;186788;1228;43481;-87
2023/02/01 10:08:40;;;;;;;7.00;3.00;;;;;;;5.71;96.57;99571.12;187297;1228;59096;-88
2023/02/01 10:13:03;;;;;;;9.50;3.60;;;;;;;5.71;95.10;99563.23;187283;1228;43938;-88
2023/02/01 10:17:27;;;;;;;9.80;3.80;;;;;;;5.74;95.20;99557.41;187155;1228;43942;-87
2023/02/01 10:22:00;;;;;;;8.40;3.50;;;;;;;5.85;94.72;99544.95;187443;1228;43898;-88
2023/02/01 10:26:10;;;;;;;11.40;4.50;;;;;;;6.04;94.06;99548.85;187335;1228;43628;-88
2023/02/01 10:30:13;;;;;;;8.00;3.90;;;;;;;6.19;93.44;99541.61;187312;1228;58118;-87
2023/02/01 10:34:22;;;;;;;6.50;4.40;;;;;;;6.27;93.78;99534.86;187448;1228;43612;-87
2023/02/01 10:38:28;;;;;;;8.40;4.90;;;;;;;6.23;94.92;99514.71;187193;1230;43787;-88
2023/02/01 10:42:31;;;;;;;4.60;2.90;;;;;;;6.14;94.58;99513.82;186876;1228;76185;-89
2023/02/01 10:46:35;;;;;;;3.80;2.70;;;;;;;6.02;95.13;99508.52;187049;1228;44091;-90
2023/02/01 10:50:40;;;;;;;8.30;3.40;;;;;;;5.98;95.94;99504.42;187263;1228;57976;-89
2023/02/01 10:54:42;;;;;;;7.40;2.40;;;;;;;5.93;96.66;99503.04;187343;1228;44096;-89
2023/02/01 10:58:47;;;;;;;4.40;2.80;;;;;;;5.82;97.46;99499.25;186883;1228;43852;-89
2023/02/01 11:02:51;;;;;;;5.40;3.40;;;;;;;5.77;98.37;99493.12;186868;1229;44054;-90
2023/02/01 11:07:07;;;;;;;4.10;2.30;;;;;;;5.73;99.35;99485.86;186931;1233;44084;-89
2023/02/01 11:11:11;;;;;;;8.60;3.40;;;;;;;5.74;99.71;99488.77;187029;1228;58095;-89
2023/02/01 11:15:18;;;;;;;8.70;4.60;;;;;;;5.64;98.96;99484.02;187344;1228;43592;-89
2023/02/01 11:19:21;;;;;;;9.40;4.90;;;;;;;5.59;100.00;99479.09;187351;1228;43916;-89
2023/02/01 11:23:26;;;;;;;10.20;3.30;;;;;;;5.56;99.91;99481.98;187104;1229;43877;-89
2023/02/01 11:27:29;;;;;;;4.40;2.80;;;;;;;5.52;100.00;99483.46;186873;1228;43785;-89
2023/02/01 11:31:33;;;;;;;4.20;3.80;;;;;;;5.53;100.00;99476.77;187100;1228;59435;-89
2023/02/01 11:35:39;;;;;;;6.50;2.60;;;;;;;5.58;100.00;99481.30;186999;1228;43648;-89
2023/02/01 11:39:52;;;;;;;6.40;3.40;;;;;;;5.72;100.00;99465.30;186961;1228;43678;-89
2023/02/01 11:44:01;;;;;;;5.70;2.90;;;;;;;5.69;100.00;99482.80;187173;1228;43950;-89
2023/02/01 11:48:09;;;;;;;4.60;3.30;;;;;;;5.67;100.00;99474.11;187153;1228;43641;-89
2023/02/01 11:52:25;;;;;;;4.50;3.80;;;;;;;5.59;100.00;99468.73;186928;1228;58087;-89
2023/02/01 11:56:57;;;;;;;3.20;2.20;;;;;;;5.57;100.00;99470.64;187039;1229;43700;-89
2023/02/01 12:01:18;;;;;;;2.60;2.20;;;;;;;5.50;100.00;99478.00;187214;1228;44065;-89
2023/02/01 12:05:35;;;;;;;2.10;1.90;;;;;;;5.42;100.00;99463.67;187063;1228;43959;-89
2023/02/01 12:09:57;;;;;;;20.10;3.80;;;;;;;5.28;100.00;99467.98;187250;1228;43939;-89
2023/02/01 12:14:03;;;;;;;5.60;2.70;;;;;;;5.20;100.00;99482.66;187163;1228;59621;-88
2023/02/01 12:18:27;;;;;;;9.90;2.20;;;;;;;5.15;100.00;99484.07;187290;1228;44183;-88
2023/02/01 12:22:42;;;;;;;6.00;3.20;;;;;;;5.08;100.00;99482.27;187264;1228;43673;-89
2023/02/01 12:26:59;;;;;;;4.60;3.00;;;;;;;5.07;100.00;99488.86;187356;1228;43731;-89
2023/02/01 12:31:16;;;;;;;5.20;3.30;;;;;;;5.10;100.00;99493.02;187071;1228;43804;-88
2023/02/01 12:35:38;;;;;;;6.40;3.20;;;;;;;5.13;100.00;99506.52;187251;1228;59410;-89
2023/02/01 12:39:46;;;;;;;6.60;3.40;;;;;;;5.18;100.00;99509.16;187171;1228;43789;-89
2023/02/01 12:43:51;;;;;;;6.00;3.00;;;;;;;5.16;100.00;99512.84;187308;1228;42991;-89
2023/02/01 12:48:03;;;;;;;5.10;3.40;;;;;;;5.21;100.00;99526.31;187277;1228;43906;-88
2023/02/01 12:52:13;;;;;;;5.70;2.80;;;;;;;5.28;100.00;99519.34;187126;1228;44068;-89
2023/02/01 12:56:34;;;;;;;5.50;2.90;;;;;;;5.42;100.00;99507.64;187241;1228;59079;-89
2023/02/01 13:01:02;;;;;;;3.40;2.50;;;;;;;5.58;100.00;99511.58;187140;1228;43861;-89
2023/02/01 13:05:20;;;;;;;6.00;3.10;;;;;;;5.70;100.00;99503.79;187256;1228;43669;-89
2023/02/01 13:09:38;;;;;;;5.20;1.90;;;;;;;5.59;100.00;99512.38;186958;1228;43953;-90
2023/02/01 13:14:10;;;;;;;4.00;1.90;;;;;;;5.45;100.00;99533.95;187184;1228;43946;-89
2023/02/01 13:18:18;;;;;;;3.10;2.00;;;;;;;5.21;100.00;99533.35;187275;1228;59194;-90
2023/02/01 13:22:31;;;;;;;3.30;3.00;;;;;;;5.26;100.00;99552.52;186982;1228;43623;-89
2023/02/01 13:26:33;;;;;;;4.00;2.60;;;;;;;5.36;100.00;99535.29;187091;1228;43569;-89
2023/02/01 13:31:04;;;;;;;5.90;2.50;;;;;;;5.46;100.00;99539.86;187150;1234;44133;-89
2023/02/01 13:35:18;;;;;;;4.90;3.50;;;;;;;5.53;100.00;99537.95;187203;1228;44020;-89
2023/02/01 13:39:43;;;;;;;3.70;2.50;;;;;;;5.62;100.00;99544.68;187427;1228;59809;-89
2023/02/01 13:43:51;;;;;;;5.20;2.40;;;;;;;5.57;100.00;99526.02;187065;1229;44005;-89
2023/02/01 13:47:57;;;;;;;6.20;2.50;;;;;;;5.65;99.94;99532.87;187142;1228;44000;-90
2023/02/01 13:51:59;;;;;;;;;;;;;;;5.70;99.40;99542.34;187172;1229;43712;-89
2023/02/01 13:56:09;;;;;;;10.00;3.00;;;;;;;5.72;98.47;99540.10;187120;1228;43664;-90
2023/02/01 14:00:31;;;;;;;4.20;2.70;;;;;;;5.72;98.02;99544.16;186854;1228;58929;-90
2023/02/01 14:04:48;;;;;;;3.40;2.10;;;;;;;5.85;97.03;99545.11;187037;1228;43707;-91
2023/02/01 14:09:09;;;;;;;8.00;3.00;;;;;;;5.93;96.90;99535.77;187171;1228;43682;-90
2023/02/01 14:13:41;;;;;;;3.30;2.60;;;;;;;5.90;95.89;99530.34;187454;1228;43766;-90
2023/02/01 14:17:44;;;;;;;4.10;2.60;;;;;;;5.92;95.86;99533.69;187086;1228;44020;-91
2023/02/01 14:54:34;;;;;;;20.20;6.40;;;;;;;5.61;98.32;99529.48;187412;1231;43873;-91
2023/02/01 14:59:00;;;;;;;9.80;4.30;;;;;;;5.62;97.74;99530.83;186963;1230;43847;-91
2023/02/01 15:03:27;;;;;;;5.00;2.90;;;;;;;5.60;98.29;99529.00;187122;1231;44046;-90
2023/02/01 15:07:40;;;;;;;8.00;3.30;;;;;;;5.54;99.95;99532.42;187088;1230;43973;-91
2023/02/01 15:11:54;;;;;;;5.50;3.10;;;;;;;5.50;100.00;99512.16;186563;1230;59275;-88
2023/02/01 15:16:11;;;;;;;2.40;1.60;;;;;;;5.43;100.00;99514.73;186809;1230;44048;-89
2023/02/01 15:20:21;;;;;;;3.40;2.20;;;;;;;5.30;100.00;99517.98;186466;1230;43770;-88
2023/02/01 15:24:26;;;;;;;11.10;3.50;;;;;;;5.20;100.00;99540.16;186673;1231;43791;-89
2023/02/01 15:28:28;;;;;;;5.60;2.50;;;;;;;5.04;100.00;99541.76;186709;1230;43765;-88
2023/02/01 15:32:31;;;;;;;4.40;2.50;;;;;;;4.90;100.00;99540.50;186763;1231;57890;-89
2023/02/01 15:36:35;;;;;;;6.20;3.00;;;;;;;4.78;100.00;99536.39;186774;1230;44083;-89
2023/02/01 15:40:37;;;;;;;7.90;3.30;;;;;;;4.71;100.00;99540.85;186780;1230;43742;-89
2023/02/01 15:44:46;;;;;;;10.30;3.60;;;;;;;4.60;100.00;99536.75;186749;1230;43992;-89
2023/02/01 15:48:54;;;;;;;5.50;3.50;;;;;;;4.54;100.00;99540.48;186732;1230;43792;-90
2023/02/01 15:52:58;;;;;;;4.60;3.10;;;;;;;4.49;100.00;99551.70;186702;1230;58697;-91
2023/02/01 15:57:03;;;;;;;4.30;3.20;;;;;;;4.51;100.00;99563.67;186902;1230;43880;-91
2023/02/01 16:01:10;;;;;;;5.80;3.40;;;;;;;4.57;100.00;99553.08;186738;1230;44065;-91
2023/02/01 16:05:45;;;;;;;7.50;4.50;;;;;;;4.59;100.00;99546.42;186683;1231;43963;-91
2023/02/01 16:09:54;;;;;;;7.00;4.90;;;;;;;4.53;100.00;99545.98;185587;1238;43843;-90
2023/02/01 16:13:57;;;;;;;3.40;3.10;;;;;;;4.46;100.00;99548.20;185315;1238;58126;-91
2023/02/01 16:18:01;;;;;;;9.20;4.50;;;;;;;4.37;100.00;99541.47;185414;1238;44455;-90
2023/02/01 16:22:03;;;;;;;18.70;4.60;;;;;;;4.29;100.00;99541.41;185440;1238;43894;-89
2023/02/01 16:26:06;;;;;;;8.30;3.90;;;;;;;4.25;100.00;99539.09;185473;1238;44021;-90
2023/02/01 16:30:10;;;;;;;11.20;5.80;;;;;;;4.15;100.00;99536.60;185543;1238;43943;-91
2023/02/01 16:34:19;;;;;;;7.40;5.00;;;;;;;4.08;100.00;99532.14;185651;1238;60115;-90
2023/02/01 16:38:22;;;;;;;9.50;4.40;;;;;;;4.03;100.00;99520.54;185555;1238;44016;-90
2023/02/01 16:42:26;;;;;;;6.60;4.60;;;;;;;4.05;100.00;99519.18;185689;1238;43812;-91
2023/02/01 16:46:34;;;;;;;5.60;3.20;;;;;;;4.06;100.00;99512.45;186710;1230;44033;-91
2023/02/01 17:13:35;;;;;;;9.20;4.70;;;;;;;4.84;100.00;99451.46;187637;1232;43158;-76
2023/02/01 17:22:29;;;;;;;6.50;3.30;;;;;;;5.02;99.00;99447.17;187600;1230;77240;-77
2023/02/01 17:26:33;;;;;;;13.20;4.70;;;;;;;5.10;98.35;99444.84;187623;1230;43087;-77
2023/02/01 17:30:37;;;;;;;10.80;4.70;;;;;;;5.19;97.45;99437.90;187638;1232;43050;-76
2023/02/01 17:34:39;;;;;;;6.90;4.30;;;;;;;5.30;97.57;99441.70;187603;1232;42986;-76
2023/02/01 17:38:52;;;;;;;4.10;3.70;;;;;;;5.34;97.20;99435.05;187600;1231;58019;-76
2023/02/01 17:43:11;;;;;;;16.80;4.50;;;;;;;5.41;96.94;99436.45;187608;1230;42946;-76
2023/02/01 17:47:15;;;;;;;6.50;3.60;;;;;;;5.40;96.60;99434.60;187535;1232;43744;-76
2023/02/01 17:56:47;;;;;;;5.80;3.70;;;;;;;5.30;98.54;99423.16;187804;1230;43669;-76
2023/02/01 18:00:49;;;;;;;6.10;2.70;;;;;;;5.29;99.37;99419.79;187574;1232;58004;-75
2023/02/01 18:04:51;;;;;;;12.40;3.40;;;;;;;5.20;99.63;99399.69;187522;1234;43088;-76
2023/02/01 18:08:53;;;;;;;5.10;3.10;;;;;;;5.18;99.55;99397.37;187605;1234;43056;-76
2023/02/01 18:12:57;;;;;;;8.00;4.40;;;;;;;5.09;99.75;99379.90;187593;1232;43558;-75
2023/02/01 18:16:58;;;;;;;6.40;4.00;;;;;;;5.07;100.00;99364.44;187785;1230;42872;-77
2023/02/01 18:21:21;;;;;;;7.60;3.90;;;;;;;5.00;99.87;99351.74;187818;1230;57969;-76
2023/02/01 18:25:25;;;;;;;5.80;4.20;;;;;;;4.97;99.84;99346.11;187588;1231;43296;-75
2023/02/01 18:29:27;;;;;;;5.50;3.30;;;;;;;4.97;99.70;99340.19;187568;1230;42884;-76
2023/02/01 18:33:29;;;;;;;3.40;2.60;;;;;;;5.01;98.77;99331.63;187539;1231;43064;-75
2023/02/01 18:37:46;;;;;;;5.90;2.10;;;;;;;5.03;97.96;99323.93;187544;1230;42922;-77
2023/02/01 18:41:50;;;;;;;4.80;2.90;;;;;;;5.06;97.88;99317.92;187724;1232;57527;-77
2023/02/01 18:45:53;;;;;;;6.80;3.20;;;;;;;5.14;97.84;99302.17;187563;1232;43383;-75
2023/02/01 18:50:22;;;;;;;3.70;2.50;;;;;;;5.21;97.08;99292.54;187832;1232;43106;-76
2023/02/01 18:54:24;;;;;;;3.00;2.30;;;;;;;5.26;96.14;99285.45;187586;1230;43793;-76
2023/02/01 18:58:27;;;;;;;5.40;3.10;;;;;;;5.28;95.75;99268.11;187618;1234;43016;-77
2023/02/01 19:02:55;;;;;;;4.50;2.80;;;;;;;5.28;94.79;99275.13;187748;1230;58209;-77
2023/02/01 19:06:57;;;;;;;4.10;2.10;;;;;;;5.31;93.99;99270.20;187770;1230;42947;-77
2023/02/01 19:11:14;;;;;;;9.00;3.20;;;;;;;5.31;93.74;99253.69;187635;1230;43585;-77
2023/02/01 19:15:17;;;;;;;3.20;2.00;;;;;;;5.23;94.48;99247.39;187624;1231;43749;-74
2023/02/01 19:19:18;;;;;;;4.50;2.80;;;;;;;5.17;95.98;99256.98;187680;1230;43808;-77
2023/02/01 19:37:40;;;;;;;;;;;;;;;;;;;;;
2023/02/01 19:47:20;;;;;;;1.80;1.30;;;;;;;4.18;100.00;99352.30;187313;1231;78312;-76
2023/02/01 19:51:23;;;;;;;4.10;1.50;;;;;;;3.95;100.00;99347.24;186520;1232;43795;-90
2023/02/01 19:55:25;;;;;;;10.30;4.00;;;;;;;3.81;100.00;99344.30;186461;1232;43766;-90
2023/02/01 20:36:19;;;;;;;6.10;2.40;;;;;;;3.76;100.00;99378.45;188078;1230;43764;-70
2023/02/01 20:41:12;;;;;;;3.20;2.70;;;;;;;3.78;100.00;99391.13;187703;1230;43612;-70
2023/02/01 20:45:14;;;;;;;12.40;2.70;;;;;;;3.85;100.00;99375.27;187996;1229;58043;-69
2023/02/01 20:49:27;;;;;;;12.20;2.80;;;;;;;3.83;100.00;99391.19;187834;1230;42974;-70
2023/02/01 20:53:29;;;;;;;2.90;2.30;;;;;;;3.83;100.00;99396.44;187756;1230;43550;-70
2023/02/01 21:03:18;;;;;;;5.20;2.80;;;;;;;3.92;100.00;99407.94;188070;1230;43378;-70
2023/02/01 21:12:14;;;;;;;5.70;2.40;;;;;;;4.06;100.00;99425.75;188049;1231;43260;-70
2023/02/01 21:17:02;;;;;;;6.00;2.50;;;;;;;4.08;100.00;99437.60;188091;1229;43630;-70
2023/02/01 21:21:06;;;;;;;2.10;1.30;;;;;;;4.06;100.00;99428.55;188022;1232;43042;-70
2023/02/01 21:25:14;;;;;;;6.10;2.20;;;;;;;4.12;100.00;99436.55;187636;1231;42939;-70
2023/02/01 21:29:16;;;;;;;6.30;3.00;;;;;;;4.15;100.00;99445.71;188028;1231;57628;-70
2023/02/01 21:33:18;;;;;;;2.40;1.90;;;;;;;4.11;100.00;99467.88;187880;1230;43667;-70
2023/02/01 21:37:24;;;;;;;7.40;2.10;;;;;;;4.15;100.00;99470.09;188086;1231;42982;-70
2023/02/01 21:45:47;;;;;;;6.10;2.40;;;;;;;4.09;100.00;99477.47;187775;1230;43632;-70
2023/02/01 21:49:57;;;;;;;6.80;2.40;;;;;;;4.10;100.00;99486.93;187779;1229;58111;-70
2023/02/01 21:54:00;;;;;;;8.30;2.80;;;;;;;4.06;100.00;99484.21;188039;1230;43601;-71
2023/02/01 21:58:11;;;;;;;3.40;2.30;;;;;;;4.07;100.00;99500.59;187755;1230;43127;-70
2023/02/01 22:02:15;;;;;;;7.60;2.10;;;;;;;4.07;100.00;99505.38;187833;1229;43018;-70
2023/02/01 22:07:00;;;;;;;5.00;1.90;;;;;;;4.06;100.00;99512.77;187700;1231;43786;-71
2023/02/01 22:11:02;;;;;;;4.30;2.50;;;;;;;4.08;100.00;99507.39;187839;1230;58115;-71
2023/02/01 22:15:07;;;;;;;7.40;2.80;;;;;;;4.10;100.00;99516.20;187726;1233;43100;-71
2023/02/01 22:19:11;;;;;;;7.40;2.90;;;;;;;4.10;100.00;99517.99;188048;1230;43295;-70
2023/02/01 22:23:39;;;;;;;7.50;4.50;;;;;;;4.12;100.00;99518.36;187772;1231;43026;-72
2023/02/01 22:27:41;;;;;;;7.40;2.60;;;;;;;4.19;100.00;99518.58;187713;1231;43377;-70
2023/02/01 22:32:03;;;;;;;8.50;3.40;;;;;;;4.25;100.00;99521.32;187924;1229;58885;-71
2023/02/01 22:36:06;;;;;;;5.20;2.90;;;;;;;4.31;100.00;99508.85;187866;1231;43786;-70
2023/02/01 22:40:12;;;;;;;11.60;3.10;;;;;;;4.34;100.00;99510.08;188035;1229;42954;-70
2023/02/01 22:44:14;;;;;;;7.00;4.00;;;;;;;4.35;100.00;99517.88;188034;1229;42969;-70
2023/02/01 22:49:05;;;;;;;7.60;2.90;;;;;;;4.30;100.00;99509.40;187680;1230;43679;-70
2023/02/01 22:53:07;;;;;;;6.40;2.60;;;;;;;4.36;100.00;99523.77;188083;1230;58101;-72